Weather History for Big Piney, WY

Change the Weather History Date:

Monday, April 22, 2013

  Actual Average Record
Temperature  
Mean Temperature 30 °F 39 °F  
Max Temperature 41 °F 54 °F 75 °F (2012)
Min Temperature 18 °F 23 °F 10 °F (2008)
Degree Days  
Heating Degree Days 35 26  
Month to date heating degree days 704 636  
Since 1 July heating degree days 8686 9331  
Cooling Degree Days 0 0  
Month to date cooling degree days 0 0  
Year to date cooling degree days 0 0  
Moisture  
Dew Point 22 °F    
Average Humidity 68    
Maximum Humidity 92    
Minimum Humidity 44    
Precipitation  
Precipitation 0.09 in 0.01 in 0.66 in (2010)
Month to date precipitation 0.25 0.35  
Year to date precipitation 0.44 1.45  
Sea Level Pressure  
Sea Level Pressure 30.04 in    
Wind  
Wind Speed 11 mph (SSW)    
Max Wind Speed 29 mph    
Max Gust Speed 38 mph    
Visibility 3 miles    
Events Fog , Snow    
T = Trace of Precipitation, MM = Missing Value Source: NWS Daily Summary

Daily Weather History Graph

Daily Weather History Graph

Search for Another Location

Airport:

Trip Planner

Search our weather history database for the weather conditions in past years. The results will help you decide how hot, cold, wet, or windy it might be!

Date:

Astronomy

Apr. 22, 2013 Rise Set
Actual Time 6:27 AM MDT 8:10 PM MDT
Civil Twilight 5:57 AM MDT 8:40 PM MDT
Nautical Twilight 5:21 AM MDT 9:17 PM MDT
Astronomical Twilight 4:42 AM MDT 9:56 PM MDT
Moon 4:59 PM MDT (4/22) 4:28 AM MDT (4/22)
Length of Visible Light 14h 42m
Length of Day
13h 43m
Waxing Gibbous, 88% of the Moon is Illuminated
Apr 22
Waxing Gibbous
Apr 25
Full
May 2
Last Quarter
May 9
New
May 17
First Quarter

Hourly Weather History & Observations

Time (MDT) Temp. Windchill Dew Point Humidity Pressure Visibility Wind Dir Wind Speed Gust Speed Precip Events Conditions
12:53 AM 36.0 °F 27.1 °F 21.0 °F 55% 29.84 in 10.0 mi WNW 13.8 mph 24.2 mph N/A   Partly Cloudy
1:53 AM 35.1 °F 24.8 °F 28.9 °F 78% 29.87 in 2.5 mi West 17.3 mph 24.2 mph 0.00 in Snow Light Snow
2:02 AM 33.8 °F 24.3 °F 30.2 °F 87% 29.97 in 1.0 mi West 13.8 mph 24.2 mph 0.00 in Snow Light Snow
2:21 AM 33.8 °F 24.8 °F 30.2 °F 87% 29.96 in 2.0 mi West 12.7 mph 21.9 mph 0.00 in Snow Light Snow
2:29 AM 33.8 °F 25.3 °F 30.2 °F 87% 29.96 in 8.0 mi West 11.5 mph 19.6 mph 0.00 in Snow Light Snow
2:53 AM 33.1 °F 25.5 °F 30.0 °F 89% 29.85 in 6.0 mi WNW 9.2 mph - 0.00 in Snow Light Snow
2:59 AM 33.8 °F 25.3 °F 30.2 °F 87% 29.96 in 2.5 mi WNW 11.5 mph - 0.00 in Snow Light Snow
3:06 AM 32.0 °F 20.1 °F 28.4 °F 87% 29.97 in 1.0 mi WNW 19.6 mph 29.9 mph 0.00 in Snow Light Snow
3:27 AM 32.0 °F 24.8 °F 30.2 °F 93% 29.96 in 3.0 mi West 8.1 mph - 0.00 in Snow Light Snow
3:38 AM 30.2 °F 26.7 °F 30.2 °F 100% 29.95 in 6.0 mi WSW 3.5 mph - 0.00 in Snow Light Snow
3:53 AM 30.0 °F 26.5 °F 28.0 °F 92% 29.84 in 10.0 mi SSW 3.5 mph - 0.00 in   Mostly Cloudy
4:53 AM 30.0 °F 25.2 °F 25.0 °F 82% 29.85 in 10.0 mi Variable 4.6 mph - N/A   Mostly Cloudy
5:53 AM 28.0 °F 22.8 °F 21.0 °F 75% 29.88 in 10.0 mi West 4.6 mph - N/A   Overcast
6:53 AM 30.0 °F 24.1 °F 19.9 °F 66% 29.89 in 10.0 mi West 5.8 mph - N/A   Scattered Clouds
7:53 AM 33.1 °F 25.5 °F 23.0 °F 66% 29.89 in 10.0 mi West 9.2 mph - N/A   Partly Cloudy
8:53 AM 36.0 °F 25.6 °F 19.9 °F 52% 29.88 in 10.0 mi WNW 18.4 mph 23.0 mph N/A   Clear
9:53 AM 37.9 °F 28.9 °F 24.1 °F 57% 29.89 in 10.0 mi WSW 16.1 mph 21.9 mph N/A   Clear
10:53 AM 37.9 °F 29.2 °F 17.1 °F 43% 29.90 in 10.0 mi NNE 15.0 mph 19.6 mph N/A   Overcast
11:49 AM 33.8 °F 22.2 °F 24.8 °F 70% 29.98 in 10.0 mi SE 20.7 mph 27.6 mph N/A   Overcast
11:53 AM 32.0 °F 19.5 °F 24.1 °F 73% 29.95 in 10.0 mi SE 21.9 mph 28.8 mph N/A   Overcast
12:16 PM 28.4 °F 14.4 °F 23.0 °F 80% 29.99 in 1.8 mi SSE 23.0 mph 29.9 mph 0.00 in Snow Light Snow
12:31 PM 26.6 °F 11.7 °F 23.0 °F 86% 29.99 in 0.8 mi SSE 24.2 mph 31.1 mph 0.00 in Snow Light Snow
12:41 PM 26.6 °F 12.7 °F 23.0 °F 86% 30.00 in 0.5 mi SSE 20.7 mph 28.8 mph 0.00 in Fog , Snow Snow
12:50 PM 26.6 °F 13.1 °F 23.0 °F 86% 29.99 in 0.2 mi SSE 19.6 mph 29.9 mph 0.00 in Fog , Snow Snow
12:53 PM 27.0 °F 13.2 °F 23.0 °F 85% 29.98 in 0.2 mi SSE 20.7 mph 29.9 mph 0.00 in Fog , Snow Snow
1:02 PM 28.4 °F 15.1 °F 23.0 °F 80% 29.99 in 1.0 mi SSE 20.7 mph - 0.00 in Snow Light Snow
1:08 PM 28.4 °F 14.1 °F 23.0 °F 80% 30.00 in 3.0 mi SSE 24.2 mph 31.1 mph 0.00 in Snow Light Snow
1:12 PM 28.4 °F 14.4 °F 23.0 °F 80% 30.00 in 6.0 mi SSE 23.0 mph 31.1 mph 0.00 in Snow Light Snow
1:26 PM 28.4 °F 15.1 °F 23.0 °F 80% 30.00 in 1.5 mi SSE 20.7 mph 27.6 mph 0.00 in Snow Light Snow
1:35 PM 26.6 °F 12.4 °F 23.0 °F 86% 30.00 in 0.5 mi SE 21.9 mph 28.8 mph 0.00 in Fog , Snow Snow
1:45 PM 26.6 °F 13.1 °F 23.0 °F 86% 30.00 in 0.5 mi SE 19.6 mph 28.8 mph 0.00 in Fog , Snow Snow
1:53 PM 26.1 °F 12.0 °F 23.0 °F 88% 30.00 in 0.2 mi SE 20.7 mph 28.8 mph 0.00 in Fog , Snow Snow
2:03 PM 24.8 °F 10.3 °F 21.2 °F 86% 30.02 in 0.2 mi SE 20.7 mph 29.9 mph 0.00 in Fog , Snow Snow
2:12 PM 24.8 °F 11.5 °F 21.2 °F 86% 30.03 in 0.8 mi ESE 17.3 mph - 0.00 in Snow Light Snow
2:41 PM 24.8 °F 13.4 °F 21.2 °F 86% 30.04 in 0.2 mi ESE 12.7 mph - 0.00 in Fog , Snow Snow
2:53 PM 25.0 °F 15.5 °F 21.9 °F 88% 30.06 in 0.2 mi ESE 9.2 mph - 0.01 in Fog , Snow Snow
3:48 PM 24.8 °F 14.6 °F 21.2 °F 86% 30.05 in 0.2 mi East 10.4 mph - 0.04 in Fog , Snow Heavy Snow
3:53 PM 24.1 °F 13.7 °F 21.0 °F 88% 30.09 in 0.2 mi East 10.4 mph - 0.04 in Fog , Snow Snow
4:53 PM 27.0 °F 19.5 °F 23.0 °F 85% 30.09 in 0.5 mi ENE 6.9 mph - 0.01 in Fog , Snow Light Snow
5:03 PM 26.6 °F 19.1 °F 21.2 °F 80% 30.07 in 0.5 mi East 6.9 mph - 0.00 in Fog , Snow Light Snow
5:51 PM 24.8 °F 19.1 °F 21.2 °F 86% 30.08 in 0.5 mi ENE 4.6 mph - 0.01 in Fog , Snow Snow
5:53 PM 25.0 °F 19.3 °F 21.9 °F 88% 30.12 in 0.5 mi ENE 4.6 mph - 0.01 in Fog , Snow Snow
6:01 PM 24.8 °F 20.5 °F 21.2 °F 86% 30.08 in 0.2 mi East 3.5 mph - 0.00 in Fog , Snow Snow
6:32 PM 24.8 °F - 21.2 °F 86% 30.10 in 0.2 mi Calm Calm - 0.01 in Fog , Snow Snow
6:39 PM 24.8 °F - 21.2 °F 86% 30.10 in 0.2 mi Calm Calm - 0.01 in Fog , Snow Light Snow
6:53 PM 24.1 °F 17.0 °F 21.9 °F 91% 30.14 in 0.2 mi SW 5.8 mph - 0.01 in Fog , Snow Snow
7:11 PM 24.8 °F 20.5 °F 19.4 °F 80% 30.11 in 0.8 mi SSE 3.5 mph - 0.00 in Snow Light Snow
7:15 PM 24.8 °F 20.5 °F 19.4 °F 80% 30.11 in 1.2 mi South 3.5 mph - 0.00 in Snow Light Snow
7:30 PM 23.0 °F 13.1 °F 19.4 °F 86% 30.11 in 0.8 mi SSW 9.2 mph - 0.01 in Snow Light Snow
7:32 PM 23.0 °F 13.1 °F 19.4 °F 86% 30.11 in 1.0 mi SW 9.2 mph - 0.01 in Snow Light Snow
7:41 PM 23.0 °F 12.4 °F 19.4 °F 86% 30.12 in 2.5 mi South 10.4 mph - 0.01 in Snow Light Snow
7:48 PM 21.2 °F 10.1 °F 19.4 °F 93% 30.12 in 2.5 mi SSW 10.4 mph - 0.01 in Snow Light Snow
7:53 PM 21.9 °F 11.0 °F 19.0 °F 89% 30.16 in 2.5 mi SW 10.4 mph - 0.01 in Snow Light Snow
7:59 PM 21.2 °F 9.5 °F 19.4 °F 93% 30.13 in 1.8 mi SW 11.5 mph - 0.00 in Snow Light Snow
8:07 PM 21.2 °F 10.1 °F 19.4 °F 93% 30.13 in 1.0 mi SW 10.4 mph - 0.00 in Snow Light Snow
8:14 PM 21.2 °F 10.1 °F 19.4 °F 93% 30.13 in 0.8 mi SW 10.4 mph - 0.00 in Snow Light Snow
8:21 PM 21.2 °F 10.1 °F 19.4 °F 93% 30.13 in 1.5 mi SW 10.4 mph - 0.00 in Snow Light Snow
8:53 PM 21.0 °F 9.3 °F 18.0 °F 88% 30.17 in 1.5 mi SW 11.5 mph - 0.00 in Snow Light Snow
9:10 PM 19.4 °F 7.2 °F 17.6 °F 93% 30.15 in 1.5 mi SW 11.5 mph - 0.00 in Snow Light Snow
9:31 PM 19.4 °F 7.2 °F 17.6 °F 93% 30.16 in 2.0 mi SSW 11.5 mph - 0.00 in Snow Light Snow
9:44 PM 19.4 °F 7.2 °F 17.6 °F 93% 30.16 in 3.0 mi SSW 11.5 mph - 0.00 in Snow Light Snow
9:53 PM 19.9 °F 9.3 °F 17.1 °F 89% 30.19 in 4.0 mi SSW 9.2 mph - 0.00 in Snow Light Snow
10:05 PM 19.4 °F 8.6 °F 17.6 °F 93% 30.17 in 5.0 mi SSW 9.2 mph - 0.00 in Snow Light Snow
10:13 PM 19.4 °F 8.6 °F 17.6 °F 93% 30.17 in 6.0 mi SSW 9.2 mph - 0.00 in Snow Light Snow
10:53 PM 19.0 °F 6.8 °F 16.0 °F 88% 30.20 in 4.0 mi SSW 11.5 mph - 0.00 in Snow Light Snow
11:30 PM 19.4 °F 7.9 °F 15.8 °F 86% 30.18 in 2.5 mi SSW 10.4 mph - 0.00 in Snow Light Snow
11:36 PM 19.4 °F 7.9 °F 15.8 °F 86% 30.18 in 1.8 mi SSW 10.4 mph - 0.00 in Snow Light Snow
11:53 PM 18.0 °F 5.4 °F 16.0 °F 92% 30.24 in 1.0 mi SW 11.5 mph - 0.00 in Snow Light Snow